Latest Weather Observations for Ceduna

IDS60801

Issued at 1:02 pm CDT Monday 22 December 2014 (issued every 30 minutes, with the page automatically refreshed every 10 minutes)

About weather observations | Map of weather stations | Latest weather observations for SA | Other Formats
Station Details ID: 018012 Name: CEDUNA AMO Lat: -32.13 Lon: 133.70 Height: 15.3 m
Data from the previous 72 hours. | See also: Recent months at Ceduna
Date/Time
CDT
Temp
°C
App
Temp
°C
Dew
Point
Rel
Hum
%
Delta-T
°C
Wind Press
QNH
hPa
Press
MSL
hPa
Rain
since 9 am
mm
Dir
 
Spd
km/h
Gust
km/h
Spd
kts
Gust
kts
22/12:00pm 20.5 17.5 16.9 80 2.2 SW 28 33 15 18 1009.7 1009.6 0.0
22/11:30am 20.7 18.6 17.1 80 2.2 SW 24 30 13 16 1009.3 1009.2 0.0
22/11:00am 20.9 19.9 17.5 81 2.1 SW 19 26 10 14 1009.2 1009.1 0.0
22/10:30am 21.1 18.9 17.9 82 2.0 WSW 26 35 14 19 1009.1 1009.0 0.0
22/09:30am 20.4 21.0 17.8 85 1.6 WNW 11 17 6 9 1008.8 1008.7 0.0
22/09:00am 20.8 19.7 17.7 82 1.9 W 20 24 11 13 1009.0 1008.9 0.6
22/08:30am 20.7 19.7 18.0 84 1.7 W 20 26 11 14 1008.9 1008.8 0.6
22/08:00am 20.3 20.4 18.4 89 1.2 WNW 15 19 8 10 1008.2 1008.1 0.6
22/07:54am 20.3 20.8 18.4 89 1.2 NW 13 17 7 9 1008.1 1008.0 0.6
22/07:30am 19.3 19.5 17.7 90 1.0 NW 13 17 7 9 1007.9 1007.8 0.6
22/07:00am 19.8 20.1 18.0 89 1.1 WNW 13 15 7 8 1007.3 1007.2 0.6
22/06:30am 19.8 20.1 17.9 89 1.2 WSW 13 19 7 10 1007.0 1006.9 0.6
22/06:00am 19.7 19.1 17.6 88 1.3 W 17 22 9 12 1006.8 1006.7 0.6
22/05:30am 19.8 19.9 17.5 86 1.4 W 13 19 7 10 1006.7 1006.6 0.6
22/05:00am 19.8 19.5 17.3 85 1.5 WNW 15 20 8 11 1006.8 1006.7 0.6
22/04:30am 19.9 19.7 17.5 86 1.5 W 15 20 8 11 1006.5 1006.4 0.6
22/04:00am 20.3 19.2 17.4 83 1.8 WNW 19 24 10 13 1006.6 1006.5 0.6
22/03:30am 21.3 19.9 17.1 77 2.6 NW 20 30 11 16 1007.3 1007.2 0.4
22/03:00am 21.8 19.4 16.5 72 3.2 NW 24 35 13 19 1007.7 1007.6 0.4
22/02:30am 21.3 19.2 15.1 67 3.7 NNW 20 35 11 19 1008.2 1008.1 0.4
22/02:00am 20.7 20.5 15.7 73 3.0 NNW 11 15 6 8 1006.9 1006.8 0.4
22/01:30am 21.1 22.3 15.8 71 3.2 E 4 7 2 4 1006.0 1005.9 0.4
22/01:00am 21.2 20.4 15.1 68 3.6 SE 13 19 7 10 1005.6 1005.5 0.4
22/12:30am 21.2 19.6 15.1 68 3.6 SE 17 22 9 12 1005.6 1005.5 0.4
22/12:00am 21.2 20.1 16.4 74 2.9 SE 17 22 9 12 1005.7 1005.6 0.4
 
Date/Time
CDT
Temp
°C
App
Temp
°C
Dew
Point
Rel
Hum
%
Delta-T
°C
Wind Press
QNH
hPa
Press
MSL
hPa
Rain
since 9 am
mm
Dir
 
Spd
km/h
Gust
km/h
Spd
kts
Gust
kts
21/11:30pm 21.9 20.2 16.3 70 3.4 SE 20 28 11 15 1006.1 1006.0 0.4
21/11:00pm 22.0 19.7 16.6 71 3.3 SE 24 33 13 18 1006.0 1005.9 0.4
21/10:30pm 21.5 19.2 16.7 74 2.9 SSE 24 35 13 19 1006.3 1006.2 0.4
21/10:00pm 21.5 19.4 16.2 72 3.2 SSE 22 32 12 17 1006.4 1006.3 0.4
21/09:30pm 21.7 19.9 15.9 69 3.5 SSE 20 28 11 15 1006.5 1006.4 0.4
21/09:00pm 21.7 18.9 16.4 72 3.2 SSE 26 35 14 19 1006.2 1006.1 0.4
21/08:30pm 22.5 19.0 15.5 64 4.2 SSE 28 37 15 20 1006.4 1006.3 0.4
21/08:00pm 23.9 19.9 15.1 58 5.3 S 30 39 16 21 1005.9 1005.8 0.4
21/07:30pm 24.7 20.8 15.6 57 5.5 S 30 39 16 21 1005.7 1005.6 0.4
21/07:00pm 26.8 23.5 15.1 48 7.1 SSE 26 33 14 18 1005.8 1005.7 0.4
21/06:30pm 25.9 23.8 16.1 54 6.0 S 22 30 12 16 1006.0 1005.9 0.4
21/06:00pm 27.4 24.7 16.6 51 6.7 SSW 26 41 14 22 1006.1 1006.0 0.4
21/05:30pm 29.3 27.1 15.9 44 8.3 S 22 28 12 15 1006.1 1006.0 0.4
21/05:00pm 27.7 24.5 15.4 47 7.5 SSE 26 32 14 17 1006.5 1006.4 0.4
21/04:30pm 27.5 26.0 17.7 55 6.2 SE 22 28 12 15 1006.8 1006.7 0.4
21/04:00pm 28.9 27.7 16.0 45 8.0 E 17 26 9 14 1007.3 1007.2 0.4
21/03:30pm 26.6 25.2 16.6 54 6.2 ESE 19 24 10 13 1007.8 1007.7 0.4
21/03:00pm 24.6 24.9 18.8 70 3.7 SE 15 20 8 11 1007.8 1007.7 0.4
21/02:30pm 26.5 25.4 16.3 53 6.3 NNW 17 26 9 14 1008.9 1008.8 0.0
21/02:00pm 30.5 25.0 9.3 26 11.9 N 28 37 15 20 1008.4 1008.3 0.0
21/01:30pm 30.4 24.6 9.4 27 11.8 N 30 43 16 23 1008.4 1008.3 0.0
21/01:00pm 32.8 26.1 7.4 20 14.0 NNW 32 44 17 24 1008.6 1008.5 0.0
21/12:34pm 32.7 24.6 6.9 20 14.1 NNW 39 57 21 31 1008.8 1008.7 0.0
21/12:30pm 33.1 24.7 7.3 20 14.2 NNW 41 57 22 31 1008.9 1008.8 0.0
21/12:00pm 34.1 26.4 5.4 16 15.4 NNW 35 57 19 31 1008.7 1008.6 0.0
21/11:56am 33.8 26.6 5.8 17 15.1 NNW 33 52 18 28 1008.8 1008.7 0.0
21/11:30am 32.4 26.3 9.8 25 12.9 NW 32 43 17 23 1008.9 1008.8 0.0
21/11:00am 32.3 25.9 10.7 26 12.5 NNW 35 46 19 25 1009.0 1008.9 0.0
21/10:30am 34.1 27.2 7.4 19 14.8 NNW 33 44 18 24 1008.8 1008.7 0.0
21/10:00am 32.9 25.4 4.3 16 15.0 NNW 33 44 18 24 1008.5 1008.4 0.0
21/09:30am 32.4 25.0 -0.6 12 15.9 N 28 35 15 19 1008.3 1008.2 0.0
21/09:00am 32.1 24.2 -5.2 9 16.6 N 28 39 15 21 1008.0 1007.9 0.0
21/08:30am 30.5 22.5 -5.3 9 15.7 NNE 28 37 15 20 1007.8 1007.7 0.0
21/08:00am 28.6 21.9 -4.6 11 14.5 NE 22 28 12 15 1007.4 1007.3 0.0
21/07:30am 27.0 20.8 -3.4 13 13.4 NE 20 26 11 14 1007.5 1007.4 0.0
21/07:00am 26.1 19.9 -2.9 14 12.8 NE 20 24 11 13 1007.2 1007.1 0.0
21/06:30am 25.7 18.8 -3.0 15 12.6 NE 24 28 13 15 1007.0 1006.9 0.0
21/06:00am 24.1 17.7 -1.9 17 11.5 NE 22 28 12 15 1006.8 1006.7 0.0
21/05:30am 21.2 16.2 1.5 27 9.1 ENE 17 20 9 11 1006.4 1006.3 0.0
21/05:00am 18.8 14.4 2.6 34 7.5 ENE 15 19 8 10 1006.4 1006.3 0.0
21/04:30am 15.7 13.7 4.4 47 5.3 ENE 4 9 2 5 1006.6 1006.5 0.0
21/04:00am 15.4 13.1 5.6 52 4.7 E 7 9 4 5 1006.8 1006.7 0.0
21/03:30am 15.4 14.5 6.1 54 4.5 CALM 0 0 0 0 1007.0 1006.9 0.0
21/03:00am 15.6 14.5 5.3 50 4.9 CALM 0 6 0 3 1007.3 1007.2 0.0
21/02:30am 14.2 11.0 5.3 55 4.2 SE 11 13 6 7 1007.7 1007.6 0.0
21/02:00am 16.8 14.7 6.7 51 5.0 ESE 7 9 4 5 1008.0 1007.9 0.0
21/01:30am 15.7 13.5 8.0 60 3.9 SE 9 9 5 5 1008.2 1008.1 0.0
21/01:00am 16.0 15.7 8.8 62 3.7 CALM 0 0 0 0 1008.6 1008.5 0.0
21/12:30am 17.1 17.1 9.7 61 3.9 CALM 0 0 0 0 1009.0 1008.9 0.0
21/12:00am 17.5 17.3 9.0 57 4.4 CALM 0 0 0 0 1009.2 1009.1 0.0
 
Date/Time
CDT
Temp
°C
App
Temp
°C
Dew
Point
Rel
Hum
%
Delta-T
°C
Wind Press
QNH
hPa
Press
MSL
hPa
Rain
since 9 am
mm
Dir
 
Spd
km/h
Gust
km/h
Spd
kts
Gust
kts
20/11:30pm 19.4 19.7 10.8 57 4.7 CALM 0 0 0 0 1009.5 1009.4 0.0
20/11:00pm 20.9 20.4 10.7 52 5.6 SSE 4 9 2 5 1009.6 1009.5 0.0
20/10:30pm 21.7 20.9 11.7 53 5.6 SE 7 9 4 5 1009.4 1009.3 0.0
20/10:00pm 23.4 21.4 11.5 47 6.7 SE 13 17 7 9 1009.4 1009.3 0.0
20/09:30pm 23.9 20.9 10.6 43 7.4 SE 17 20 9 11 1009.4 1009.3 0.0
20/09:00pm 24.6 20.6 8.9 37 8.5 SSE 20 28 11 15 1009.4 1009.3 0.0
20/08:30pm 25.1 21.7 11.3 42 7.8 SSE 20 28 11 15 1009.5 1009.4 0.0
20/08:00pm 25.9 22.1 11.3 40 8.3 SSE 22 32 12 17 1009.5 1009.4 0.0
20/07:30pm 26.4 21.8 11.0 38 8.7 S 26 33 14 18 1009.6 1009.5 0.0
20/07:00pm 26.7 21.5 10.3 35 9.2 SSE 28 37 15 20 1009.5 1009.4 0.0
20/06:30pm 26.6 20.9 11.1 38 8.8 S 32 39 17 21 1009.6 1009.5 0.0
20/06:00pm 28.1 22.6 10.4 33 10.0 S 30 37 16 20 1009.6 1009.5 0.0
20/05:30pm 28.9 23.3 10.1 31 10.6 S 30 35 16 19 1009.7 1009.6 0.0
20/05:00pm 30.4 24.4 7.1 23 12.6 S 28 33 15 18 1010.1 1010.0 0.0
20/04:30pm 30.4 24.4 7.1 23 12.6 S 28 33 15 18 1010.5 1010.4 0.0
20/04:00pm 30.1 24.2 7.7 24 12.2 S 28 33 15 18 1011.0 1010.9 0.0
20/03:30pm 29.5 24.0 9.2 28 11.3 S 28 33 15 18 1011.5 1011.4 0.0
20/03:00pm 29.0 24.2 10.3 31 10.6 S 26 32 14 17 1012.0 1011.9 0.0
20/02:30pm 30.4 25.2 8.8 26 12.0 S 26 32 14 17 1012.5 1012.4 0.0
20/02:00pm 32.2 27.5 7.7 21 13.5 S 22 28 12 15 1012.8 1012.7 0.0
20/01:30pm 32.3 27.9 7.6 21 13.6 S 20 28 11 15 1013.5 1013.4 0.0
20/01:00pm 30.3 26.0 9.4 27 11.7 SSW 22 26 12 14 1014.1 1014.0 0.0
20/12:30pm 28.8 24.1 7.7 26 11.4 SSW 22 26 12 14 1014.5 1014.4 0.0
20/12:00pm 28.2 24.3 8.7 29 10.7 SW 19 22 10 12 1014.7 1014.6 0.0
20/11:30am 31.0 26.9 2.1 16 14.4 N 13 20 7 11 1014.9 1014.8 0.0
20/11:00am 30.2 26.2 3.0 17 13.7 NNE 13 22 7 12 1015.2 1015.1 0.0
20/10:30am 28.8 24.0 2.5 18 13.0 NE 17 24 9 13 1015.5 1015.4 0.0
20/10:00am 26.8 21.8 3.4 22 11.6 ENE 19 28 10 15 1015.8 1015.7 0.0
20/09:30am 24.9 19.9 4.5 26 10.2 ENE 20 26 11 14 1015.8 1015.7 0.0
20/09:00am 21.6 17.5 6.1 36 7.8 E 17 22 9 12 1016.3 1016.2 0.0
20/08:30am 18.7 14.3 6.4 44 6.1 E 19 24 10 13 1016.2 1016.1 0.0
20/08:00am 16.6 12.8 7.6 55 4.5 E 17 22 9 12 1016.3 1016.2 0.0
20/07:30am 15.1 11.5 8.3 64 3.4 E 17 22 9 12 1016.3 1016.2 0.0
20/07:00am 12.7 9.9 8.7 76 2.0 E 13 19 7 10 1016.2 1016.1 0.0
20/06:30am 10.9 8.5 8.7 86 1.1 ESE 11 17 6 9 1016.4 1016.3 0.0
20/06:00am 9.3 7.4 7.6 89 0.8 ESE 7 9 4 5 1016.4 1016.3 0.0
20/05:30am 9.5 7.3 8.0 90 0.7 ENE 9 11 5 6 1016.3 1016.2 0.0
20/05:00am 10.0 7.5 8.1 88 0.9 E 11 13 6 7 1016.4 1016.3 0.0
20/04:30am 10.6 8.5 8.3 86 1.1 E 9 11 5 6 1016.7 1016.6 0.0
20/04:00am 11.9 10.6 9.3 84 1.3 ESE 6 7 3 4 1016.6 1016.5 0.0
20/03:30am 12.4 10.7 9.9 85 1.3 ESE 9 11 5 6 1016.6 1016.5 0.0
20/03:00am 13.9 11.9 10.2 78 1.9 SE 11 15 6 8 1016.8 1016.7 0.0
20/02:30am 13.6 11.8 10.7 82 1.5 SE 11 15 6 8 1017.2 1017.1 0.0
20/02:00am 13.6 12.2 10.9 84 1.4 SE 9 11 5 6 1017.2 1017.1 0.0
20/01:30am 14.9 13.3 11.7 81 1.7 SE 11 13 6 7 1017.6 1017.5 0.0
20/01:00am 16.0 13.4 12.0 77 2.2 SE 17 24 9 13 1017.6 1017.5 0.0
20/12:30am 16.2 13.6 12.0 76 2.3 SE 17 20 9 11 1017.8 1017.7 0.0
20/12:00am 16.4 13.8 12.0 75 2.4 SSE 17 20 9 11 1018.2 1018.1 0.0
 
Date/Time
CDT
Temp
°C
App
Temp
°C
Dew
Point
Rel
Hum
%
Delta-T
°C
Wind Press
QNH
hPa
Press
MSL
hPa
Rain
since 9 am
mm
Dir
 
Spd
km/h
Gust
km/h
Spd
kts
Gust
kts
19/11:30pm 16.8 13.9 12.4 75 2.4 SSE 19 24 10 13 1018.5 1018.4 0.0
19/11:00pm 16.9 14.1 12.6 76 2.4 SSE 19 24 10 13 1018.6 1018.5 0.0
19/10:30pm 17.3 14.2 12.2 72 2.8 SSE 20 26 11 14 1018.9 1018.8 0.0
19/10:00pm 17.5 13.8 11.6 68 3.2 SSE 22 28 12 15 1019.0 1018.9 0.0
19/09:30pm 17.7 13.6 11.6 67 3.3 SSE 24 33 13 18 1018.8 1018.7 0.0
19/09:00pm 17.9 13.6 12.1 69 3.2 S 26 35 14 19 1018.8 1018.7 0.0
19/08:30pm 18.3 13.6 11.9 66 3.5 S 28 35 15 19 1018.8 1018.7 0.0
19/08:00pm 19.0 13.5 11.9 63 3.9 SSE 32 37 17 20 1018.8 1018.7 0.0
19/07:30pm 19.7 14.4 11.3 58 4.6 S 30 39 16 21 1018.8 1018.7 0.0
19/07:00pm 20.0 14.1 11.2 57 4.8 S 33 41 18 22 1018.6 1018.5 0.0
19/06:30pm 20.2 14.5 11.1 56 5.0 S 32 39 17 21 1018.6 1018.5 0.0
19/06:00pm 20.8 15.0 10.7 52 5.5 S 32 39 17 21 1018.7 1018.6 0.0
19/05:30pm 21.0 15.1 11.0 52 5.5 S 33 43 18 23 1018.6 1018.5 0.0
19/05:00pm 21.3 15.3 10.0 48 6.1 S 32 43 17 23 1018.9 1018.8 0.0
19/04:30pm 21.0 15.0 10.7 51 5.6 S 33 41 18 22 1019.0 1018.9 0.0
19/04:00pm 21.2 14.9 9.6 47 6.2 S 33 43 18 23 1019.3 1019.2 0.0
19/03:30pm 21.9 15.8 9.6 45 6.6 S 32 43 17 23 1019.5 1019.4 0.0
19/03:00pm 21.5 15.3 9.5 46 6.4 S 32 37 17 20 1019.7 1019.6 0.0
19/02:30pm 22.0 16.0 10.2 47 6.4 SSW 32 39 17 21 1019.9 1019.8 0.0
19/02:00pm 22.2 15.8 9.3 43 6.9 SSW 33 41 18 22 1020.1 1020.1 0.0
19/01:30pm 21.8 15.6 9.5 45 6.6 SSW 32 39 17 21 1020.5 1020.5 0.0

Other Formats:

Comma delimited format used in spreadsheet applications
http://www.bom.gov.au/fwo/IDS60801/IDS60801.94653.axf

JavaScript Object Notation format (JSON) in row-major order
http://www.bom.gov.au/fwo/IDS60801/IDS60801.94653.json